Time;durP1;ratioP1;P1;durP2;ratioP2;P2;SDS_P1;SDS_P2;PMS_P1;PMS_P2;Temp;Humidity;BMP_temperature;BMP_pressure;BME280_temperature;BME280_humidity;BME280_pressure;Samples;Min_cycle;Max_cycle;Signal;HPM_P1;HPM_P2
2021/12/27 00:00:43;;;;;;;0.40;0.40;;;2.50;99.90;;;;;;5054447;28;20568;-82
2021/12/27 00:03:11;;;;;;;0.40;0.40;;;2.50;99.90;;;;;;5055394;28;20237;-81
2021/12/27 00:05:38;;;;;;;0.40;0.30;;;2.50;99.90;;;;;;5054971;28;20194;-80
2021/12/27 00:08:05;;;;;;;0.40;0.40;;;2.50;99.90;;;;;;5054846;28;20209;-81
2021/12/27 00:10:32;;;;;;;0.40;0.40;;;2.60;99.90;;;;;;5053836;28;20201;-81
2021/12/27 00:13:02;;;;;;;0.40;0.40;;;2.60;99.90;;;;;;5055184;28;20218;-81
2021/12/27 00:15:29;;;;;;;0.50;0.50;;;2.70;99.90;;;;;;5054717;28;20248;-81
2021/12/27 00:17:56;;;;;;;0.40;0.40;;;2.80;99.90;;;;;;5055383;28;20198;-81
2021/12/27 00:20:23;;;;;;;0.40;0.40;;;2.90;99.90;;;;;;5054543;28;20237;-80
2021/12/27 00:22:51;;;;;;;0.40;0.40;;;2.90;99.90;;;;;;5054419;28;20227;-81
2021/12/27 00:25:18;;;;;;;0.40;0.30;;;2.80;99.90;;;;;;5054782;28;20202;-80
2021/12/27 00:27:46;;;;;;;0.40;0.40;;;2.80;99.90;;;;;;5054524;28;20560;-80
2021/12/27 00:30:15;;;;;;;0.40;0.40;;;2.80;99.90;;;;;;5053833;28;20213;-81
2021/12/27 00:32:43;;;;;;;0.40;0.40;;;2.80;99.90;;;;;;5054857;28;20214;-81
2021/12/27 00:35:12;;;;;;;0.40;0.40;;;2.80;99.90;;;;;;5054335;28;20226;-81
2021/12/27 00:37:39;;;;;;;0.40;0.40;;;2.90;99.90;;;;;;5056074;28;20220;-81
2021/12/27 00:40:07;;;;;;;0.40;0.38;;;3.00;99.90;;;;;;5054766;28;20223;-81
2021/12/27 00:42:34;;;;;;;0.40;0.30;;;3.00;99.90;;;;;;5054751;28;20225;-81
2021/12/27 00:45:01;;;;;;;0.40;0.40;;;3.00;99.90;;;;;;5054562;28;20197;-81
2021/12/27 00:47:29;;;;;;;0.40;0.30;;;3.00;99.90;;;;;;5054459;28;20202;-81
2021/12/27 00:49:56;;;;;;;0.40;0.40;;;3.00;99.90;;;;;;5054843;28;20191;-81
2021/12/27 00:52:23;;;;;;;0.40;0.40;;;3.00;99.90;;;;;;5055152;28;20195;-81
2021/12/27 00:54:49;;;;;;;0.40;0.35;;;3.00;99.90;;;;;;5054590;28;20236;-81
2021/12/27 00:57:16;;;;;;;0.73;0.73;;;3.00;99.90;;;;;;5054684;28;20206;-80
2021/12/27 00:59:43;;;;;;;0.40;0.40;;;3.00;99.90;;;;;;5052993;28;20663;-81
2021/12/27 01:02:10;;;;;;;0.40;0.38;;;3.00;99.90;;;;;;5054402;28;21047;-81
2021/12/27 01:04:38;;;;;;;0.40;0.40;;;3.00;99.90;;;;;;5054826;28;20214;-81
2021/12/27 01:07:05;;;;;;;0.40;0.40;;;3.00;99.90;;;;;;5061735;28;20190;-80
2021/12/27 01:09:42;;;;;;;0.40;0.40;;;3.00;99.90;;;;;;5053509;28;20201;-81
2021/12/27 01:12:25;;;;;;;0.40;0.30;;;3.10;99.90;;;;;;5053529;28;20217;-80
2021/12/27 01:15:08;;;;;;;0.40;0.40;;;3.10;99.90;;;;;;5053422;28;20221;-80
2021/12/27 01:17:35;;;;;;;0.63;0.63;;;3.20;99.90;;;;;;5055177;28;20179;-80
2021/12/27 01:20:06;;;;;;;0.88;0.88;;;3.20;99.90;;;;;;5058016;28;20194;-81
2021/12/27 01:22:33;;;;;;;0.40;0.40;;;3.20;99.90;;;;;;5057720;28;20233;-80
2021/12/27 01:25:00;;;;;;;0.40;0.40;;;3.40;99.90;;;;;;5057691;28;20191;-81
2021/12/27 01:27:27;;;;;;;0.50;0.50;;;3.50;99.90;;;;;;5057814;28;20195;-80
2021/12/27 01:29:54;;;;;;;0.40;0.40;;;3.60;99.90;;;;;;5057207;28;20203;-80
2021/12/27 01:32:22;;;;;;;0.40;0.32;;;3.80;99.90;;;;;;5057541;28;20199;-81
2021/12/27 01:34:49;;;;;;;0.40;0.30;;;3.80;99.90;;;;;;5058233;28;20415;-80
2021/12/27 01:37:18;;;;;;;0.40;0.30;;;3.80;99.90;;;;;;5057758;28;20195;-80
2021/12/27 01:39:45;;;;;;;0.40;0.30;;;3.80;99.90;;;;;;5057243;28;20190;-80
2021/12/27 01:42:12;;;;;;;0.40;0.40;;;3.80;99.90;;;;;;5057006;28;20201;-80
2021/12/27 01:44:40;;;;;;;1.15;1.15;;;3.80;99.90;;;;;;5057452;28;20679;-80
2021/12/27 01:47:08;;;;;;;0.40;0.30;;;3.80;99.90;;;;;;5057850;28;20194;-81
2021/12/27 01:49:35;;;;;;;0.40;0.30;;;3.90;99.90;;;;;;5057297;28;20559;-80
2021/12/27 01:52:01;;;;;;;2.85;2.67;;;4.00;99.90;;;;;;5057831;28;20199;-80
2021/12/27 01:54:29;;;;;;;0.40;0.30;;;4.10;99.90;;;;;;5058354;28;20214;-81
2021/12/27 01:56:56;;;;;;;1.45;1.02;;;4.10;99.90;;;;;;5057455;28;20198;-80
2021/12/27 01:59:23;;;;;;;0.40;0.30;;;4.20;99.90;;;;;;5057034;28;20194;-79
2021/12/27 02:01:50;;;;;;;0.70;0.70;;;4.20;99.90;;;;;;5057302;28;20195;-81
2021/12/27 02:04:17;;;;;;;1.25;1.15;;;4.20;99.90;;;;;;5057187;28;20225;-79
2021/12/27 02:06:44;;;;;;;0.90;0.77;;;4.30;99.90;;;;;;5058387;28;20206;-80
2021/12/27 02:09:10;;;;;;;0.50;0.40;;;4.30;99.90;;;;;;5058321;28;20194;-80
2021/12/27 02:11:39;;;;;;;0.40;0.30;;;4.40;99.90;;;;;;5057427;28;20289;-79
2021/12/27 02:14:07;;;;;;;0.40;0.30;;;4.40;99.90;;;;;;5057476;28;20214;-80
2021/12/27 02:16:36;;;;;;;0.65;0.65;;;4.50;99.90;;;;;;5057810;28;20277;-82
2021/12/27 02:19:04;;;;;;;1.77;0.63;;;4.50;99.90;;;;;;5057079;28;20194;-80
2021/12/27 02:21:32;;;;;;;0.50;0.40;;;4.50;99.90;;;;;;5057202;28;20218;-80
2021/12/27 02:24:00;;;;;;;2.25;2.15;;;4.60;99.90;;;;;;5055833;28;20222;-80
2021/12/27 02:26:27;;;;;;;0.40;0.30;;;4.60;99.90;;;;;;5056949;28;20199;-80
2021/12/27 02:28:54;;;;;;;0.40;0.30;;;4.60;99.90;;;;;;5056120;28;20195;-80
2021/12/27 02:31:21;;;;;;;0.40;0.30;;;4.60;99.90;;;;;;5055945;28;20202;-80
2021/12/27 02:33:47;;;;;;;0.40;0.40;;;4.60;99.90;;;;;;5056368;28;20229;-80
2021/12/27 02:36:14;;;;;;;0.90;0.80;;;4.60;99.90;;;;;;5055809;28;20190;-80
2021/12/27 02:38:44;;;;;;;1.85;1.85;;;4.60;99.90;;;;;;5056149;28;20233;-80
2021/12/27 02:41:12;;;;;;;2.28;1.10;;;4.60;99.90;;;;;;5055790;28;20198;-80
2021/12/27 02:43:42;;;;;;;0.40;0.30;;;4.60;99.90;;;;;;5055505;28;20218;-80
2021/12/27 02:46:10;;;;;;;0.60;0.60;;;4.60;99.90;;;;;;5055893;28;20191;-80
2021/12/27 02:48:39;;;;;;;0.40;0.30;;;4.70;99.90;;;;;;5055982;28;20221;-80
2021/12/27 02:51:07;;;;;;;0.40;0.30;;;4.70;99.90;;;;;;5055814;28;20190;-80
2021/12/27 02:53:33;;;;;;;0.63;0.63;;;4.70;99.90;;;;;;5055922;28;20223;-80
2021/12/27 02:56:04;;;;;;;0.40;0.30;;;4.70;99.90;;;;;;5056141;28;20635;-81
2021/12/27 02:58:31;;;;;;;0.60;0.60;;;4.70;99.90;;;;;;5056203;28;20205;-80
2021/12/27 03:01:04;;;;;;;0.50;0.50;;;4.70;99.90;;;;;;5055351;28;20572;-79
2021/12/27 03:03:31;;;;;;;0.60;0.60;;;4.70;99.90;;;;;;5055425;28;20285;-80
2021/12/27 03:05:58;;;;;;;0.40;0.30;;;4.70;99.90;;;;;;5055595;28;20202;-80
2021/12/27 03:08:26;;;;;;;0.40;0.30;;;4.80;99.90;;;;;;5055263;28;20199;-80
2021/12/27 03:10:55;;;;;;;0.47;0.40;;;4.80;99.90;;;;;;5055052;28;20642;-79
2021/12/27 03:13:25;;;;;;;0.50;0.50;;;4.80;99.90;;;;;;5055330;28;20218;-80
2021/12/27 03:15:53;;;;;;;0.40;0.32;;;4.70;99.90;;;;;;5055372;28;20222;-80
2021/12/27 03:18:20;;;;;;;0.40;0.35;;;4.80;99.90;;;;;;5055652;28;20202;-80
2021/12/27 03:20:47;;;;;;;0.60;0.60;;;4.80;99.90;;;;;;5055151;28;20205;-80
2021/12/27 03:23:14;;;;;;;0.30;0.30;;;4.80;99.90;;;;;;5054949;28;20618;-80
2021/12/27 03:25:41;;;;;;;0.95;0.82;;;4.80;99.90;;;;;;5055655;28;20197;-81
2021/12/27 03:28:08;;;;;;;1.30;0.95;;;4.90;99.90;;;;;;5055219;28;20195;-79
2021/12/27 03:30:37;;;;;;;1.35;1.25;;;4.90;99.90;;;;;;5054464;28;20195;-80
2021/12/27 03:33:04;;;;;;;0.40;0.30;;;4.90;99.90;;;;;;5054977;28;20225;-80
2021/12/27 03:35:35;;;;;;;0.30;0.30;;;4.90;99.90;;;;;;5054805;28;20215;-81
2021/12/27 03:38:04;;;;;;;0.38;0.30;;;4.90;99.90;;;;;;5055424;28;20182;-80
2021/12/27 03:40:32;;;;;;;0.60;0.60;;;4.90;99.90;;;;;;5053860;28;20620;-81
2021/12/27 03:42:59;;;;;;;7.35;6.63;;;4.90;99.90;;;;;;5054162;28;20225;-80
2021/12/27 03:45:30;;;;;;;0.70;0.70;;;4.90;99.90;;;;;;5054857;28;20198;-80
2021/12/27 03:47:58;;;;;;;0.30;0.30;;;4.90;99.90;;;;;;5054702;28;20575;-80
2021/12/27 03:50:25;;;;;;;0.77;0.77;;;4.90;99.90;;;;;;5054650;28;20202;-79
2021/12/27 03:52:53;;;;;;;0.30;0.30;;;4.90;99.90;;;;;;5053959;28;20581;-80
2021/12/27 03:55:20;;;;;;;0.88;0.80;;;4.90;99.90;;;;;;5054528;28;20214;-79
2021/12/27 03:57:52;;;;;;;0.30;0.30;;;4.90;99.90;;;;;;5054362;28;20194;-80
2021/12/27 04:00:32;;;;;;;0.50;0.50;;;4.90;99.90;;;;;;5054483;28;20533;-80
2021/12/27 04:03:02;;;;;;;0.30;0.30;;;4.90;99.90;;;;;;5054399;28;20642;-80
2021/12/27 04:05:31;;;;;;;0.43;0.43;;;4.90;99.90;;;;;;5054747;28;20692;-80
2021/12/27 04:08:03;;;;;;;0.98;0.98;;;4.90;99.90;;;;;;5054649;28;20564;-80
2021/12/27 04:10:30;;;;;;;1.30;1.20;;;4.90;99.90;;;;;;5053911;28;20194;-80
2021/12/27 04:12:57;;;;;;;0.30;0.30;;;4.90;99.90;;;;;;5054319;28;20222;-80
2021/12/27 04:15:24;;;;;;;0.90;0.90;;;5.00;99.90;;;;;;5054079;28;20211;-81
2021/12/27 04:17:51;;;;;;;0.30;0.30;;;5.00;99.90;;;;;;5054406;28;20202;-80
2021/12/27 04:20:20;;;;;;;0.50;0.50;;;5.00;99.90;;;;;;5054267;28;20205;-80
2021/12/27 04:22:47;;;;;;;0.30;0.30;;;5.00;99.90;;;;;;5053978;28;20230;-81
2021/12/27 04:25:14;;;;;;;0.32;0.30;;;5.00;99.90;;;;;;5054259;28;20202;-80
2021/12/27 04:27:40;;;;;;;0.50;0.50;;;5.00;99.90;;;;;;5053545;28;20209;-80
2021/12/27 04:30:08;;;;;;;0.80;0.80;;;5.10;99.90;;;;;;5053530;28;20202;-80
2021/12/27 04:32:35;;;;;;;0.55;0.43;;;5.10;99.90;;;;;;5054356;28;20595;-81
2021/12/27 04:35:02;;;;;;;0.40;0.30;;;5.10;99.90;;;;;;5053858;28;20215;-81
2021/12/27 04:37:30;;;;;;;0.35;0.30;;;5.10;99.90;;;;;;5053613;28;20194;-80
2021/12/27 04:39:57;;;;;;;0.35;0.30;;;5.10;99.90;;;;;;5053512;28;20191;-80
2021/12/27 04:42:24;;;;;;;0.40;0.30;;;5.10;99.90;;;;;;5053566;28;20195;-80
2021/12/27 04:44:51;;;;;;;0.40;0.30;;;5.10;99.90;;;;;;5053468;28;20194;-80
2021/12/27 04:47:18;;;;;;;0.40;0.30;;;5.10;99.90;;;;;;5053854;28;20194;-81
2021/12/27 04:49:45;;;;;;;0.40;0.40;;;5.10;99.90;;;;;;5052955;28;20195;-80
2021/12/27 04:52:12;;;;;;;0.40;0.30;;;5.10;99.90;;;;;;5053470;28;20221;-81
2021/12/27 04:54:41;;;;;;;0.40;0.30;;;5.10;99.90;;;;;;5052799;28;20201;-81
2021/12/27 04:57:08;;;;;;;0.40;0.30;;;5.10;99.90;;;;;;5053746;28;20603;-80
2021/12/27 04:59:35;;;;;;;0.40;0.40;;;5.10;99.90;;;;;;5052898;28;20198;-80
2021/12/27 05:02:02;;;;;;;0.40;0.30;;;5.10;99.90;;;;;;5053617;28;20672;-80
2021/12/27 05:04:29;;;;;;;0.40;0.30;;;5.20;99.90;;;;;;5053167;28;20218;-80
2021/12/27 05:06:56;;;;;;;0.40;0.30;;;5.20;99.90;;;;;;5053530;28;20560;-80
2021/12/27 05:09:23;;;;;;;0.40;0.30;;;5.20;99.90;;;;;;5052541;28;20226;-80
2021/12/27 05:11:51;;;;;;;0.68;0.68;;;5.20;99.90;;;;;;5053871;28;20195;-81
2021/12/27 05:14:18;;;;;;;0.40;0.30;;;5.20;99.90;;;;;;5053513;28;20297;-78
2021/12/27 05:16:45;;;;;;;0.50;0.50;;;5.30;99.90;;;;;;5053417;28;20257;-80
2021/12/27 05:19:12;;;;;;;0.40;0.30;;;5.30;99.90;;;;;;5052673;28;20202;-80
2021/12/27 05:21:39;;;;;;;1.60;1.50;;;5.30;99.90;;;;;;5053309;28;20218;-81
2021/12/27 05:24:07;;;;;;;0.40;0.30;;;5.30;99.90;;;;;;5052906;28;20226;-80
2021/12/27 05:26:33;;;;;;;1.20;0.50;;;5.30;99.90;;;;;;5053389;28;20222;-80
2021/12/27 05:29:02;;;;;;;0.40;0.30;;;5.30;99.90;;;;;;5053170;28;20206;-80
2021/12/27 05:31:28;;;;;;;0.40;0.40;;;5.30;99.90;;;;;;5053230;28;20222;-80
2021/12/27 05:33:55;;;;;;;2.35;0.98;;;5.30;99.90;;;;;;5053537;28;20215;-80
2021/12/27 05:36:22;;;;;;;0.40;0.30;;;5.30;99.90;;;;;;5053443;28;20222;-79
2021/12/27 05:38:48;;;;;;;0.40;0.30;;;5.30;99.90;;;;;;5051541;28;20545;-79
2021/12/27 05:41:15;;;;;;;2.15;1.92;;;5.30;99.90;;;;;;5052088;28;20198;-80
2021/12/27 05:43:42;;;;;;;0.40;0.30;;;5.30;99.90;;;;;;5051775;28;20214;-81
2021/12/27 05:46:10;;;;;;;0.98;0.98;;;5.30;99.90;;;;;;5051950;28;20252;-81
2021/12/27 05:48:37;;;;;;;0.40;0.40;;;5.30;99.90;;;;;;5051976;28;20201;-81
2021/12/27 05:51:04;;;;;;;0.40;0.30;;;5.30;99.90;;;;;;5051216;28;20202;-82
2021/12/27 05:53:31;;;;;;;0.40;0.30;;;5.30;99.90;;;;;;5052051;28;20226;-82
2021/12/27 05:55:57;;;;;;;0.40;0.40;;;5.30;99.90;;;;;;5052451;28;20210;-81
2021/12/27 05:58:25;;;;;;;4.80;1.17;;;5.30;99.90;;;;;;5051639;28;20199;-79
2021/12/27 06:00:52;;;;;;;0.40;0.40;;;5.30;99.90;;;;;;5051028;28;20294;-81
2021/12/27 06:03:20;;;;;;;1.77;1.20;;;5.30;99.90;;;;;;5051658;28;20218;-81
2021/12/27 06:05:47;;;;;;;0.55;0.52;;;5.40;99.90;;;;;;5054371;28;20198;-81
2021/12/27 06:08:14;;;;;;;0.75;0.75;;;5.40;99.90;;;;;;5055921;28;20214;-81
2021/12/27 06:10:40;;;;;;;0.50;0.50;;;5.40;99.90;;;;;;5055989;28;20199;-80
2021/12/27 06:13:07;;;;;;;0.40;0.30;;;5.40;99.90;;;;;;5056216;28;20572;-81
2021/12/27 06:15:34;;;;;;;0.40;0.30;;;5.40;99.90;;;;;;5055369;28;20215;-81
2021/12/27 06:18:01;;;;;;;0.40;0.40;;;5.50;99.90;;;;;;5055652;28;20195;-81
2021/12/27 06:20:29;;;;;;;0.40;0.40;;;5.50;99.90;;;;;;5055146;28;20559;-80
2021/12/27 06:22:59;;;;;;;0.40;0.40;;;5.50;99.90;;;;;;5055186;28;20250;-82
2021/12/27 06:25:26;;;;;;;0.40;0.30;;;5.50;99.90;;;;;;5055576;28;20178;-81
2021/12/27 06:27:53;;;;;;;0.68;0.68;;;5.50;99.90;;;;;;5055633;28;20203;-81
2021/12/27 06:30:20;;;;;;;0.40;0.30;;;5.50;99.90;;;;;;5054934;28;20202;-81
2021/12/27 06:32:48;;;;;;;0.40;0.30;;;5.50;99.90;;;;;;5055349;28;20674;-81
2021/12/27 06:35:16;;;;;;;1.70;1.13;;;5.60;99.90;;;;;;5055649;28;20571;-82
2021/12/27 06:37:45;;;;;;;2.15;0.80;;;5.60;99.90;;;;;;5057097;28;20202;-82
2021/12/27 06:40:14;;;;;;;0.40;0.30;;;5.70;99.90;;;;;;5055986;28;20194;-81
2021/12/27 06:42:41;;;;;;;0.60;0.50;;;5.70;99.90;;;;;;5056107;28;20210;-81
2021/12/27 06:45:09;;;;;;;1.45;1.35;;;5.70;99.90;;;;;;5055702;28;20569;-80
2021/12/27 06:47:36;;;;;;;0.40;0.30;;;5.80;99.90;;;;;;5055865;28;20198;-80
2021/12/27 06:50:03;;;;;;;0.40;0.30;;;5.80;99.90;;;;;;5055927;28;20194;-80
2021/12/27 06:52:30;;;;;;;0.40;0.30;;;5.80;99.90;;;;;;5055976;28;20198;-80
2021/12/27 06:54:58;;;;;;;0.60;0.50;;;5.80;99.90;;;;;;5055295;28;20201;-81
2021/12/27 06:57:25;;;;;;;0.40;0.30;;;5.80;99.90;;;;;;5055717;28;21034;-80
2021/12/27 06:59:52;;;;;;;1.98;1.98;;;5.90;99.90;;;;;;5056307;28;20191;-83
2021/12/27 07:02:19;;;;;;;1.77;1.20;;;5.90;99.90;;;;;;5066398;28;20206;-82
2021/12/27 07:04:45;;;;;;;0.55;0.45;;;5.90;99.90;;;;;;5063727;28;20206;-81
2021/12/27 07:07:12;;;;;;;0.40;0.30;;;5.90;99.90;;;;;;5055470;28;20182;-81
2021/12/27 07:09:39;;;;;;;0.40;0.40;;;6.00;99.90;;;;;;5055045;28;20194;-82
2021/12/27 07:12:08;;;;;;;0.40;0.30;;;6.00;99.90;;;;;;5055964;28;20197;-82
2021/12/27 07:14:35;;;;;;;0.40;0.30;;;6.10;99.90;;;;;;5055432;28;20219;-82
2021/12/27 07:17:02;;;;;;;0.40;0.30;;;6.10;99.90;;;;;;5055007;28;20218;-82
2021/12/27 07:19:29;;;;;;;0.50;0.50;;;6.10;99.90;;;;;;5064190;28;20253;-82
2021/12/27 07:21:56;;;;;;;0.40;0.40;;;6.10;99.90;;;;;;5077014;28;20194;-81
2021/12/27 07:24:23;;;;;;;0.40;0.30;;;6.10;99.90;;;;;;5075632;28;20221;-81
2021/12/27 07:26:49;;;;;;;0.85;0.85;;;6.20;99.90;;;;;;5074271;28;20186;-81
2021/12/27 07:29:17;;;;;;;5.03;4.63;;;6.20;99.90;;;;;;5074395;28;20552;-81
2021/12/27 07:31:44;;;;;;;0.63;0.63;;;6.20;99.90;;;;;;5074359;28;20202;-80
2021/12/27 07:34:12;;;;;;;0.40;0.30;;;6.20;99.90;;;;;;5074764;28;20217;-81
2021/12/27 07:36:39;;;;;;;0.40;0.30;;;6.30;99.90;;;;;;5074877;28;20209;-79
2021/12/27 07:39:07;;;;;;;0.40;0.30;;;6.30;99.90;;;;;;5073991;28;20194;-80
2021/12/27 07:41:34;;;;;;;0.50;0.50;;;6.30;99.90;;;;;;5073733;28;20202;-79
2021/12/27 07:44:00;;;;;;;0.40;0.30;;;6.30;99.90;;;;;;5074551;28;20214;-79
2021/12/27 07:46:29;;;;;;;1.33;1.20;;;6.30;99.90;;;;;;5074759;28;20597;-79
2021/12/27 07:48:55;;;;;;;0.40;0.30;;;6.40;99.90;;;;;;5073879;28;20276;-81
2021/12/27 07:51:22;;;;;;;1.40;1.40;;;6.40;99.90;;;;;;5074032;28;20197;-79
2021/12/27 07:53:49;;;;;;;0.70;0.70;;;6.40;99.90;;;;;;5073865;28;20240;-81
2021/12/27 07:56:16;;;;;;;0.50;0.50;;;6.40;99.90;;;;;;5066984;28;20217;-80
2021/12/27 07:58:43;;;;;;;0.40;0.40;;;6.40;99.90;;;;;;5063526;28;20198;-80
2021/12/27 08:01:09;;;;;;;0.50;0.50;;;6.40;99.90;;;;;;5054108;28;20237;-81
2021/12/27 08:03:37;;;;;;;0.40;0.30;;;6.50;99.90;;;;;;5053491;28;20214;-79
2021/12/27 08:06:04;;;;;;;1.48;0.88;;;6.50;99.90;;;;;;5054046;28;20195;-80
2021/12/27 08:08:31;;;;;;;0.45;0.38;;;6.50;99.90;;;;;;5053762;28;20201;-80
2021/12/27 08:10:58;;;;;;;0.40;0.30;;;6.50;99.90;;;;;;5053308;28;20202;-79
2021/12/27 08:13:24;;;;;;;0.40;0.40;;;6.50;99.90;;;;;;5053284;28;20222;-79
2021/12/27 08:15:52;;;;;;;0.50;0.50;;;6.60;99.90;;;;;;5058595;28;20220;-80
2021/12/27 08:18:20;;;;;;;0.40;0.30;;;6.60;99.90;;;;;;5073942;28;20195;-80
2021/12/27 08:20:48;;;;;;;0.40;0.40;;;6.60;99.90;;;;;;5073392;28;20198;-81
2021/12/27 08:23:15;;;;;;;0.40;0.40;;;6.70;99.90;;;;;;5072732;28;20222;-79
2021/12/27 08:25:42;;;;;;;0.50;0.40;;;6.80;99.90;;;;;;5072728;28;20201;-79
2021/12/27 08:28:09;;;;;;;2.35;2.15;;;7.00;99.90;;;;;;5072722;28;20190;-80
2021/12/27 08:30:36;;;;;;;0.40;0.30;;;7.10;99.90;;;;;;5077827;28;20198;-79
2021/12/27 08:33:03;;;;;;;1.83;0.88;;;7.30;99.90;;;;;;5073094;28;20211;-79
2021/12/27 08:35:30;;;;;;;0.40;0.40;;;7.30;99.90;;;;;;5071663;23;20223;-81
2021/12/27 08:37:58;;;;;;;0.40;0.30;;;7.40;99.90;;;;;;5046009;28;20216;-80
2021/12/27 08:40:24;;;;;;;0.40;0.30;;;7.50;99.90;;;;;;5053892;28;20199;-77
2021/12/27 08:42:51;;;;;;;0.40;0.40;;;7.60;99.90;;;;;;5054344;28;20199;-79
2021/12/27 08:45:18;;;;;;;0.40;0.30;;;7.60;99.90;;;;;;5054668;28;20226;-82
2021/12/27 08:47:45;;;;;;;0.70;0.70;;;7.70;99.90;;;;;;5054251;28;20191;-80
2021/12/27 08:50:13;;;;;;;0.55;0.55;;;7.80;99.90;;;;;;5054035;28;20202;-81
2021/12/27 08:52:42;;;;;;;0.40;0.40;;;8.00;99.90;;;;;;5054509;28;20197;-81
2021/12/27 08:55:11;;;;;;;1.10;1.10;;;8.20;99.90;;;;;;5054907;28;20273;-77
2021/12/27 08:57:37;;;;;;;0.40;0.40;;;8.30;99.90;;;;;;5054250;28;20227;-80
2021/12/27 09:00:07;;;;;;;2.15;2.05;;;8.30;99.90;;;;;;5054905;28;20208;-79
2021/12/27 09:02:34;;;;;;;0.60;0.60;;;8.50;99.90;;;;;;5054744;28;20196;-81
2021/12/27 09:05:01;;;;;;;0.40;0.40;;;8.60;99.90;;;;;;5054492;28;20223;-80
2021/12/27 09:07:28;;;;;;;0.40;0.30;;;8.80;99.90;;;;;;5054249;28;20216;-80
2021/12/27 09:09:55;;;;;;;0.98;0.50;;;9.00;99.90;;;;;;5053703;28;20202;-81
2021/12/27 09:12:23;;;;;;;0.63;0.63;;;9.10;99.90;;;;;;5054421;28;20193;-79
2021/12/27 09:14:51;;;;;;;0.40;0.40;;;9.20;99.90;;;;;;5054739;28;20220;-80
2021/12/27 09:17:18;;;;;;;0.47;0.40;;;8.80;99.90;;;;;;5049505;28;20698;-79
2021/12/27 09:19:45;;;;;;;0.45;0.43;;;8.60;99.90;;;;;;5042062;28;20202;-80
2021/12/27 09:22:13;;;;;;;0.50;0.40;;;8.30;99.90;;;;;;5034112;28;20200;-80
2021/12/27 09:24:40;;;;;;;0.40;0.40;;;8.20;99.90;;;;;;5034218;28;20224;-81
2021/12/27 09:27:07;;;;;;;0.40;0.40;;;8.30;99.90;;;;;;5034522;28;20689;-81
2021/12/27 09:29:35;;;;;;;0.50;0.40;;;8.40;99.90;;;;;;5033831;28;20196;-81
2021/12/27 09:32:03;;;;;;;0.40;0.40;;;8.60;99.90;;;;;;5033913;28;20193;-79
2021/12/27 09:34:29;;;;;;;0.40;0.40;;;8.90;99.90;;;;;;5033328;28;20217;-82
2021/12/27 09:36:56;;;;;;;0.50;0.30;;;9.00;99.90;;;;;;5034023;28;20218;-82
2021/12/27 09:39:23;;;;;;;0.40;0.38;;;9.20;99.90;;;;;;5034012;28;20198;-82
2021/12/27 09:41:50;;;;;;;1.50;1.40;;;9.30;99.90;;;;;;5037460;28;20201;-81
2021/12/27 09:44:16;;;;;;;1.35;1.25;;;9.50;99.90;;;;;;5037764;28;20201;-81
2021/12/27 09:46:45;;;;;;;0.50;0.40;;;9.70;99.90;;;;;;5037666;28;20273;-78
2021/12/27 09:49:16;;;;;;;1.40;0.50;;;9.60;99.90;;;;;;5036871;28;20204;-81
2021/12/27 09:51:43;;;;;;;0.50;0.40;;;9.60;99.90;;;;;;5037378;28;20191;-80
2021/12/27 09:54:10;;;;;;;1.20;1.10;;;9.50;99.90;;;;;;5042564;28;20205;-80
2021/12/27 09:56:37;;;;;;;0.82;0.40;;;9.50;99.90;;;;;;5062627;28;20215;-83
2021/12/27 09:59:04;;;;;;;0.60;0.60;;;9.40;99.90;;;;;;5066240;28;20201;-80
2021/12/27 10:01:31;;;;;;;0.50;0.50;;;9.30;99.90;;;;;;5071910;28;20199;-81
2021/12/27 10:04:01;;;;;;;1.10;0.60;;;9.30;99.90;;;;;;5076662;28;20197;-79
2021/12/27 10:06:30;;;;;;;1.33;1.23;;;9.20;99.90;;;;;;5071209;28;20227;-80
2021/12/27 10:08:59;;;;;;;0.50;0.50;;;9.00;99.90;;;;;;5065804;28;20192;-81
2021/12/27 10:11:29;;;;;;;0.50;0.40;;;9.00;99.90;;;;;;5064269;28;20197;-81
2021/12/27 10:14:05;;;;;;;0.50;0.40;;;8.90;99.90;;;;;;5074201;28;20204;-82
2021/12/27 10:16:34;;;;;;;0.50;0.40;;;8.80;99.90;;;;;;5076859;28;20231;-81
2021/12/27 10:19:05;;;;;;;2.05;0.80;;;8.90;99.90;;;;;;5076535;28;20201;-81
2021/12/27 10:21:33;;;;;;;0.50;0.40;;;9.20;99.90;;;;;;5077211;28;20272;-81
2021/12/27 10:24:06;;;;;;;0.50;0.32;;;9.70;99.90;;;;;;5076555;28;20200;-81
2021/12/27 10:26:34;;;;;;;0.40;0.40;;;9.80;99.90;;;;;;5077538;28;20218;-81
2021/12/27 10:29:15;;;;;;;0.50;0.40;;;9.90;99.90;;;;;;5077450;28;20281;-81
2021/12/27 10:31:54;;;;;;;0.50;0.40;;;10.00;99.90;;;;;;5077889;28;20212;-81
2021/12/27 10:34:23;;;;;;;0.50;0.40;;;10.20;99.90;;;;;;5077740;28;20199;-79
2021/12/27 10:37:12;;;;;;;1.13;0.85;;;10.40;99.90;;;;;;5077535;28;20699;-81
2021/12/27 10:39:54;;;;;;;0.50;0.40;;;10.80;99.90;;;;;;5076891;28;20195;-81
2021/12/27 10:42:24;;;;;;;1.35;0.50;;;10.70;99.90;;;;;;5075822;28;20713;-79
2021/12/27 10:44:54;;;;;;;0.50;0.40;;;10.40;99.90;;;;;;5077238;28;20221;-80
2021/12/27 10:47:35;;;;;;;0.50;0.40;;;10.20;99.90;;;;;;5070569;28;20575;-81
2021/12/27 10:50:08;;;;;;;0.60;0.50;;;10.10;99.90;;;;;;5064487;28;20190;-81
2021/12/27 10:52:54;;;;;;;0.50;0.40;;;10.00;99.90;;;;;;5045091;28;20540;-81
2021/12/27 10:55:22;;;;;;;0.50;0.40;;;9.70;99.90;;;;;;5076501;28;20583;-81
2021/12/27 10:57:50;;;;;;;0.63;0.63;;;9.60;99.90;;;;;;5077477;28;20240;-80
2021/12/27 11:00:27;;;;;;;0.60;0.60;;;9.50;99.90;;;;;;5062487;28;20208;-78
2021/12/27 11:02:54;;;;;;;0.50;0.40;;;9.40;99.90;;;;;;5064766;28;20201;-81
2021/12/27 11:05:24;;;;;;;0.60;0.40;;;9.20;99.90;;;;;;5068027;28;20216;-80
2021/12/27 11:07:51;;;;;;;0.50;0.40;;;9.30;99.90;;;;;;5077623;28;20471;-81
2021/12/27 11:10:20;;;;;;;0.50;0.40;;;9.30;99.90;;;;;;5075576;28;20214;-78
2021/12/27 11:12:47;;;;;;;0.50;0.40;;;9.40;99.90;;;;;;5076469;28;20199;-79
2021/12/27 11:15:14;;;;;;;0.50;0.40;;;9.40;99.90;;;;;;5069158;28;20219;-80
2021/12/27 11:17:40;;;;;;;0.60;0.50;;;9.50;99.90;;;;;;5068648;28;20213;-81
2021/12/27 11:20:10;;;;;;;0.50;0.40;;;9.60;99.90;;;;;;5076567;28;20209;-79
2021/12/27 11:22:44;;;;;;;0.50;0.30;;;9.70;99.90;;;;;;5076266;28;20212;-81
2021/12/27 11:25:22;;;;;;;0.50;0.40;;;9.80;99.90;;;;;;5076461;28;20231;-78
2021/12/27 11:27:49;;;;;;;1.10;0.95;;;9.90;99.90;;;;;;5076993;28;20190;-81
2021/12/27 11:30:22;;;;;;;0.50;0.30;;;9.90;99.90;;;;;;5076992;28;20201;-81
2021/12/27 11:33:12;;;;;;;0.60;0.60;;;9.90;99.90;;;;;;5044041;28;20191;-81
2021/12/27 11:36:01;;;;;;;1.40;1.30;;;9.70;99.90;;;;;;5076406;28;20225;-80
2021/12/27 11:38:32;;;;;;;0.50;0.30;;;9.90;99.90;;;;;;5074045;28;20618;-80
2021/12/27 11:41:00;;;;;;;0.73;0.70;;;10.10;99.90;;;;;;5056367;28;20205;-81
2021/12/27 11:43:47;;;;;;;5.38;1.48;;;10.10;99.90;;;;;;5064718;28;20198;-81
2021/12/27 11:46:14;;;;;;;0.50;0.40;;;10.00;99.90;;;;;;5062584;28;20213;-81
2021/12/27 11:48:45;;;;;;;0.50;0.40;;;10.10;99.90;;;;;;5067176;28;20201;-81
2021/12/27 11:51:12;;;;;;;0.50;0.40;;;10.20;99.90;;;;;;5067739;28;20193;-80
2021/12/27 11:53:50;;;;;;;0.50;0.40;;;10.20;99.90;;;;;;5075429;28;20197;-80
2021/12/27 11:56:39;;;;;;;0.50;0.40;;;10.30;99.90;;;;;;5075645;28;20670;-80
2021/12/27 11:59:28;;;;;;;0.50;0.40;;;10.20;99.90;;;;;;5074984;28;20770;-80
2021/12/27 12:01:57;;;;;;;0.50;0.40;;;10.10;99.90;;;;;;5063568;28;20246;-80
2021/12/27 12:04:42;;;;;;;0.50;0.38;;;9.90;99.90;;;;;;5070784;28;20205;-81
2021/12/27 12:07:10;;;;;;;1.45;1.35;;;9.80;99.90;;;;;;5070682;28;20236;-80
2021/12/27 12:09:47;;;;;;;0.60;0.60;;;9.70;99.90;;;;;;5062828;28;20206;-79
2021/12/27 12:12:15;;;;;;;0.50;0.50;;;9.90;99.90;;;;;;5075449;28;20667;-79
2021/12/27 12:14:43;;;;;;;2.35;2.25;;;10.30;99.90;;;;;;5075011;28;20307;-82
2021/12/27 12:17:14;;;;;;;0.50;0.40;;;10.70;99.90;;;;;;5075388;28;20220;-81
2021/12/27 12:19:43;;;;;;;0.50;0.40;;;11.00;99.90;;;;;;5074571;28;20293;-81
2021/12/27 12:22:35;;;;;;;0.50;0.38;;;11.10;99.90;;;;;;5075467;28;20207;-80
2021/12/27 12:25:19;;;;;;;0.50;0.40;;;11.20;99.90;;;;;;5057699;28;20206;-80
2021/12/27 12:27:58;;;;;;;0.50;0.40;;;11.10;99.90;;;;;;5075494;28;20212;-80
2021/12/27 12:30:28;;;;;;;0.95;0.70;;;10.80;99.90;;;;;;5060813;28;20209;-80
2021/12/27 12:33:01;;;;;;;0.50;0.40;;;10.70;99.90;;;;;;5071846;28;20194;-81
2021/12/27 12:35:36;;;;;;;0.50;0.40;;;10.70;99.90;;;;;;5074929;28;20323;-79
2021/12/27 12:38:17;;;;;;;2.20;1.25;;;10.70;99.90;;;;;;5073922;28;20221;-81
2021/12/27 12:40:47;;;;;;;1.88;1.17;;;10.50;99.90;;;;;;5061303;28;20198;-80
2021/12/27 12:43:32;;;;;;;1.05;1.05;;;10.30;99.90;;;;;;5042341;28;20190;-82
2021/12/27 12:45:59;;;;;;;0.50;0.40;;;10.20;99.90;;;;;;5061491;28;20217;-81
2021/12/27 12:48:29;;;;;;;0.50;0.43;;;10.30;99.90;;;;;;5056080;28;20237;-81
2021/12/27 12:50:57;;;;;;;0.50;0.40;;;10.40;99.90;;;;;;5058122;28;20195;-81
2021/12/27 12:53:31;;;;;;;0.77;0.77;;;10.60;99.90;;;;;;5075988;28;20205;-77
2021/12/27 12:56:02;;;;;;;0.50;0.40;;;10.90;99.90;;;;;;5074271;28;20960;-81
2021/12/27 12:58:36;;;;;;;0.50;0.40;;;11.10;99.90;;;;;;5074447;28;20259;-81
2021/12/27 13:01:06;;;;;;;1.92;0.88;;;11.00;99.90;;;;;;5074131;28;20567;-81
2021/12/27 13:03:32;;;;;;;0.50;0.40;;;10.90;99.90;;;;;;5074817;28;20198;-81